Time;durP1;ratioP1;P1;durP2;ratioP2;P2;SDS_P1;SDS_P2;PMS_P1;PMS_P2;Temp;Humidity;BMP_temperature;BMP_pressure;BME280_temperature;BME280_humidity;BME280_pressure;Samples;Min_cycle;Max_cycle;Signal;HPM_P1;HPM_P2
2022/07/13 00:01:50;;;;;;;2.90;0.73;;;;;;;;;;5011950;28;20053;-37
2022/07/13 00:04:15;;;;;;;1.65;0.77;;;;;;;;;;5012084;28;20164;-37
2022/07/13 00:06:40;;;;;;;5.75;1.15;;;;;;;;;;5012701;28;20025;-36
2022/07/13 00:09:06;;;;;;;3.15;0.80;;;;;;;;;;5011049;28;20029;-37
2022/07/13 00:11:31;;;;;;;1.90;0.80;;;;;;;;;;5011923;28;20030;-39
2022/07/13 00:13:56;;;;;;;5.82;1.70;;;;;;;;;;5012322;28;20026;-38
2022/07/13 00:16:22;;;;;;;4.78;0.82;;;;;;;;;;5011669;28;20021;-37
2022/07/13 00:18:47;;;;;;;5.95;0.80;;;;;;;;;;5011401;28;20025;-38
2022/07/13 00:21:12;;;;;;;3.25;0.82;;;;;;;;;;5011404;28;20018;-36
2022/07/13 00:23:38;;;;;;;2.60;0.90;;;;;;;;;;5012222;28;20034;-36
2022/07/13 00:26:03;;;;;;;1.70;0.90;;;;;;;;;;5011851;28;20034;-37
2022/07/13 00:28:28;;;;;;;4.05;1.30;;;;;;;;;;5011038;28;20026;-40
2022/07/13 00:30:54;;;;;;;4.68;0.80;;;;;;;;;;5011020;28;20026;-37
2022/07/13 00:33:19;;;;;;;2.13;1.30;;;;;;;;;;5023164;28;20018;-37
2022/07/13 00:35:44;;;;;;;4.28;1.17;;;;;;;;;;5031416;28;20071;-36
2022/07/13 00:38:10;;;;;;;2.53;0.90;;;;;;;;;;5030578;28;20092;-38
2022/07/13 00:40:35;;;;;;;4.20;0.98;;;;;;;;;;5030409;28;20766;-37
2022/07/13 00:43:00;;;;;;;6.80;1.30;;;;;;;;;;5031492;28;20028;-37
2022/07/13 00:45:25;;;;;;;3.88;0.80;;;;;;;;;;5031209;28;20037;-36
2022/07/13 00:47:51;;;;;;;1.75;1.02;;;;;;;;;;5031039;28;20028;-38
2022/07/13 00:50:16;;;;;;;2.65;1.00;;;;;;;;;;5030240;28;20016;-37
2022/07/13 00:52:42;;;;;;;5.47;1.20;;;;;;;;;;5030814;28;20022;-37
2022/07/13 00:55:09;;;;;;;2.28;1.08;;;;;;;;;;5031339;28;20512;-38
2022/07/13 00:57:35;;;;;;;1.10;0.77;;;;;;;;;;5026183;28;20010;-40
2022/07/13 01:00:03;;;;;;;3.13;0.98;;;;;;;;;;5010322;28;20088;-38
2022/07/13 01:02:28;;;;;;;0.98;0.80;;;;;;;;;;5011010;28;20100;-37
2022/07/13 01:04:53;;;;;;;0.80;0.80;;;;;;;;;;5011510;28;20140;-43
2022/07/13 01:07:19;;;;;;;2.47;1.08;;;;;;;;;;5011069;28;20076;-37
2022/07/13 01:09:44;;;;;;;6.47;1.08;;;;;;;;;;5010623;28;20020;-41
2022/07/13 01:12:09;;;;;;;3.17;0.90;;;;;;;;;;5010844;28;20458;-37
2022/07/13 01:14:36;;;;;;;1.20;0.80;;;;;;;;;;5011596;28;20105;-39
2022/07/13 01:17:01;;;;;;;3.45;1.20;;;;;;;;;;5011023;28;20018;-40
2022/07/13 01:19:27;;;;;;;4.28;1.13;;;;;;;;;;5010397;28;20071;-37
2022/07/13 01:21:56;;;;;;;1.90;1.00;;;;;;;;;;5010666;28;20461;-37
2022/07/13 01:24:22;;;;;;;1.02;0.80;;;;;;;;;;5010894;28;20025;-37
2022/07/13 01:26:48;;;;;;;1.90;0.85;;;;;;;;;;5010908;28;20052;-37
2022/07/13 01:29:13;;;;;;;8.40;1.23;;;;;;;;;;5010419;28;20053;-38
2022/07/13 01:31:40;;;;;;;1.45;0.93;;;;;;;;;;5042298;28;20050;-38
2022/07/13 01:34:05;;;;;;;2.53;0.82;;;;;;;;;;5028708;28;20464;-38
2022/07/13 01:36:31;;;;;;;4.00;0.98;;;;;;;;;;5029846;28;20078;-37
2022/07/13 01:38:57;;;;;;;1.63;0.90;;;;;;;;;;5029929;28;20145;-39
2022/07/13 01:41:24;;;;;;;3.80;1.27;;;;;;;;;;5030210;28;20060;-38
2022/07/13 01:43:49;;;;;;;2.42;0.90;;;;;;;;;;5030628;28;20029;-36
2022/07/13 01:46:15;;;;;;;14.02;1.10;;;;;;;;;;5030601;28;20029;-38
2022/07/13 01:48:40;;;;;;;3.72;1.15;;;;;;;;;;5029863;28;20024;-39
2022/07/13 01:51:05;;;;;;;5.25;1.10;;;;;;;;;;5030492;28;20029;-37
2022/07/13 01:53:31;;;;;;;2.20;1.00;;;;;;;;;;5030534;28;20067;-37
2022/07/13 01:55:56;;;;;;;5.32;1.27;;;;;;;;;;5029556;28;20037;-37
2022/07/13 01:58:21;;;;;;;5.28;1.15;;;;;;;;;;5018519;28;20025;-38
2022/07/13 02:00:47;;;;;;;5.80;1.02;;;;;;;;;;5010179;28;20022;-41
2022/07/13 02:03:12;;;;;;;4.03;1.20;;;;;;;;;;5012436;28;20408;-36
2022/07/13 02:05:38;;;;;;;2.50;1.17;;;;;;;;;;5014763;28;20034;-36
2022/07/13 02:08:03;;;;;;;1.35;1.00;;;;;;;;;;5045722;28;20412;-39
2022/07/13 02:10:34;;;;;;;1.80;1.00;;;;;;;;;;5013368;28;20468;-37
2022/07/13 02:13:01;;;;;;;1.73;1.00;;;;;;;;;;5046346;28;20501;-37
2022/07/13 02:15:27;;;;;;;2.72;1.25;;;;;;;;;;5014072;28;20018;-37
2022/07/13 02:17:52;;;;;;;1.42;1.13;;;;;;;;;;5014098;28;20014;-40
2022/07/13 02:20:17;;;;;;;5.88;1.02;;;;;;;;;;5013026;28;20574;-37
2022/07/13 02:22:45;;;;;;;3.65;0.95;;;;;;;;;;5014571;28;20014;-36
2022/07/13 02:25:11;;;;;;;6.68;1.50;;;;;;;;;;5013683;28;20065;-36
2022/07/13 02:27:36;;;;;;;4.65;1.00;;;;;;;;;;5014235;28;20050;-36
2022/07/13 02:30:02;;;;;;;4.28;1.20;;;;;;;;;;5044582;28;20022;-38
2022/07/13 02:32:27;;;;;;;3.50;1.02;;;;;;;;;;5018192;28;20112;-37
2022/07/13 02:34:53;;;;;;;7.88;1.95;;;;;;;;;;5033704;28;20512;-37
2022/07/13 02:37:18;;;;;;;2.63;1.00;;;;;;;;;;5033823;28;20025;-37
2022/07/13 02:39:43;;;;;;;1.38;1.20;;;;;;;;;;5032461;28;20124;-36
2022/07/13 02:42:09;;;;;;;2.75;1.55;;;;;;;;;;5033403;28;20036;-38
2022/07/13 02:44:34;;;;;;;1.60;0.88;;;;;;;;;;5033273;28;20032;-37
2022/07/13 02:46:59;;;;;;;6.57;1.27;;;;;;;;;;5032955;28;20125;-37
2022/07/13 02:49:25;;;;;;;1.60;1.00;;;;;;;;;;5031917;28;20079;-39
2022/07/13 02:51:50;;;;;;;7.15;1.25;;;;;;;;;;5033258;28;20017;-40
2022/07/13 02:54:16;;;;;;;1.17;0.90;;;;;;;;;;5033443;28;20029;-43
2022/07/13 02:56:42;;;;;;;3.38;1.27;;;;;;;;;;5033370;28;20021;-36
2022/07/13 02:59:07;;;;;;;8.10;1.30;;;;;;;;;;5015033;28;20420;-40
2022/07/13 03:01:32;;;;;;;2.75;1.10;;;;;;;;;;5012595;28;20029;-37
2022/07/13 03:03:58;;;;;;;4.65;1.27;;;;;;;;;;5012416;28;20018;-38
2022/07/13 03:06:23;;;;;;;1.20;0.80;;;;;;;;;;5013081;28;20529;-36
2022/07/13 03:08:48;;;;;;;1.30;1.00;;;;;;;;;;5012939;28;20018;-38
2022/07/13 03:11:14;;;;;;;4.90;1.33;;;;;;;;;;5012433;28;20076;-38
2022/07/13 03:13:39;;;;;;;2.20;1.17;;;;;;;;;;5012577;28;20401;-37
2022/07/13 03:16:05;;;;;;;2.05;1.17;;;;;;;;;;5012635;28;20057;-39
2022/07/13 03:18:30;;;;;;;5.40;1.52;;;;;;;;;;5012240;28;20112;-37
2022/07/13 03:20:55;;;;;;;1.25;1.10;;;;;;;;;;5012340;28;20117;-37
2022/07/13 03:23:20;;;;;;;6.47;1.55;;;;;;;;;;5013255;28;20029;-37
2022/07/13 03:25:46;;;;;;;3.40;1.27;;;;;;;;;;5012873;28;20037;-37
2022/07/13 03:28:11;;;;;;;2.72;1.55;;;;;;;;;;5012371;28;20598;-37
2022/07/13 03:30:37;;;;;;;2.70;1.42;;;;;;;;;;5011703;28;20025;-40
2022/07/13 03:33:02;;;;;;;4.35;1.35;;;;;;;;;;5021785;28;20022;-39
2022/07/13 03:35:27;;;;;;;3.08;1.63;;;;;;;;;;5032887;28;20101;-37
2022/07/13 03:37:53;;;;;;;4.63;1.15;;;;;;;;;;5032305;28;20032;-39
2022/07/13 03:40:18;;;;;;;3.92;1.40;;;;;;;;;;5031606;28;20125;-36
2022/07/13 03:42:43;;;;;;;3.53;1.10;;;;;;;;;;5032169;28;20025;-36
2022/07/13 03:45:09;;;;;;;5.03;1.83;;;;;;;;;;5032587;28;20392;-40
2022/07/13 03:47:34;;;;;;;2.00;1.38;;;;;;;;;;5031967;28;20558;-37
2022/07/13 03:50:00;;;;;;;6.20;1.60;;;;;;;;;;5031027;28;20026;-37
2022/07/13 03:52:25;;;;;;;7.10;1.30;;;;;;;;;;5031990;28;20032;-37
2022/07/13 03:54:50;;;;;;;5.35;1.63;;;;;;;;;;5031082;28;20022;-37
2022/07/13 03:57:16;;;;;;;10.38;1.63;;;;;;;;;;5029728;28;20030;-37
2022/07/13 03:59:41;;;;;;;7.65;1.45;;;;;;;;;;5011662;28;20128;-37
2022/07/13 04:02:07;;;;;;;4.75;1.42;;;;;;;;;;5011597;28;20033;-40
2022/07/13 04:04:32;;;;;;;2.95;1.38;;;;;;;;;;5012324;28;20034;-36
2022/07/13 04:06:57;;;;;;;9.43;1.58;;;;;;;;;;5011965;28;20075;-38
2022/07/13 04:09:23;;;;;;;2.25;1.30;;;;;;;;;;5011840;28;20021;-37
2022/07/13 04:11:49;;;;;;;6.35;1.40;;;;;;;;;;5011744;28;20022;-40
2022/07/13 04:14:14;;;;;;;2.28;1.42;;;;;;;;;;5012305;28;20048;-37
2022/07/13 04:16:39;;;;;;;4.35;1.42;;;;;;;;;;5012319;28;20029;-38
2022/07/13 04:19:05;;;;;;;9.07;1.58;;;;;;;;;;5010791;28;20022;-38
2022/07/13 04:21:31;;;;;;;7.45;1.58;;;;;;;;;;5011743;28;20037;-37
2022/07/13 04:23:56;;;;;;;2.47;1.42;;;;;;;;;;5011723;28;20022;-42
2022/07/13 04:26:22;;;;;;;4.35;1.20;;;;;;;;;;5012068;28;20034;-37
2022/07/13 04:28:47;;;;;;;3.72;1.45;;;;;;;;;;5010793;28;20030;-40
2022/07/13 04:31:12;;;;;;;2.63;1.40;;;;;;;;;;5011371;28;20076;-37
2022/07/13 04:33:38;;;;;;;8.02;1.35;;;;;;;;;;5025424;28;20076;-39
2022/07/13 04:36:05;;;;;;;2.75;1.23;;;;;;;;;;5032092;28;20024;-37
2022/07/13 04:38:31;;;;;;;2.28;1.17;;;;;;;;;;5030679;28;20052;-37
2022/07/13 04:40:56;;;;;;;6.30;1.97;;;;;;;;;;5030816;28;20022;-37
2022/07/13 04:43:23;;;;;;;4.80;1.33;;;;;;;;;;5031254;28;20297;-37
2022/07/13 04:45:49;;;;;;;2.88;1.30;;;;;;;;;;5031450;28;20087;-41
2022/07/13 04:48:14;;;;;;;4.13;2.00;;;;;;;;;;5030387;28;20099;-38
2022/07/13 04:50:39;;;;;;;3.75;1.10;;;;;;;;;;5030860;28;20025;-36
2022/07/13 04:53:05;;;;;;;2.55;1.00;;;;;;;;;;5031613;28;20028;-36
2022/07/13 04:55:30;;;;;;;2.17;1.17;;;;;;;;;;5031216;28;20021;-39
2022/07/13 04:57:57;;;;;;;1.55;1.00;;;;;;;;;;5023428;28;20071;-37
2022/07/13 05:00:22;;;;;;;2.25;0.80;;;;;;;;;;5010301;28;20025;-37
2022/07/13 05:02:47;;;;;;;3.45;1.40;;;;;;;;;;5011261;28;20022;-42
2022/07/13 05:05:13;;;;;;;3.17;1.30;;;;;;;;;;5011005;28;20073;-36
2022/07/13 05:07:38;;;;;;;2.17;1.00;;;;;;;;;;5011592;28;20026;-38
2022/07/13 05:10:04;;;;;;;11.70;1.30;;;;;;;;;;5010021;28;20030;-37
2022/07/13 05:12:29;;;;;;;2.97;1.08;;;;;;;;;;5011235;28;20030;-37
2022/07/13 05:14:57;;;;;;;6.85;1.20;;;;;;;;;;5011043;28;20025;-36
2022/07/13 05:17:22;;;;;;;4.05;0.90;;;;;;;;;;5011459;28;20033;-36
2022/07/13 05:19:47;;;;;;;3.78;1.20;;;;;;;;;;5009775;28;20021;-38
2022/07/13 05:22:13;;;;;;;5.73;1.30;;;;;;;;;;5011276;28;20028;-37
2022/07/13 05:24:43;;;;;;;4.65;1.52;;;;;;;;;;5010998;28;20298;-41
2022/07/13 05:27:09;;;;;;;4.00;1.40;;;;;;;;;;5011402;28;20103;-38
2022/07/13 05:29:34;;;;;;;7.22;1.10;;;;;;;;;;5010213;28;20484;-37
2022/07/13 05:31:59;;;;;;;5.00;1.25;;;;;;;;;;5011130;28;20018;-38
2022/07/13 05:34:25;;;;;;;3.33;1.10;;;;;;;;;;5030778;28;20022;-38
2022/07/13 05:36:53;;;;;;;2.95;0.98;;;;;;;;;;5030723;28;20018;-37
2022/07/13 05:39:18;;;;;;;4.10;1.02;;;;;;;;;;5033684;28;20118;-37
2022/07/13 05:41:43;;;;;;;2.53;1.20;;;;;;;;;;5032701;28;20461;-37
2022/07/13 05:44:09;;;;;;;1.75;0.93;;;;;;;;;;5035048;28;20080;-38
2022/07/13 05:46:34;;;;;;;3.25;0.70;;;;;;;;;;5036129;28;20025;-38
2022/07/13 05:48:59;;;;;;;3.53;0.93;;;;;;;;;;5033391;28;20024;-38
2022/07/13 05:51:24;;;;;;;3.30;1.08;;;;;;;;;;5033753;28;20100;-37
2022/07/13 05:53:53;;;;;;;5.22;0.90;;;;;;;;;;5034661;28;20372;-38
2022/07/13 05:56:18;;;;;;;7.53;1.03;;;;;;;;;;5034150;28;20514;-39
2022/07/13 05:58:43;;;;;;;2.88;0.93;;;;;;;;;;5033739;28;20021;-39
2022/07/13 06:01:09;;;;;;;14.95;1.27;;;;;;;;;;5033591;28;20033;-39
2022/07/13 06:03:34;;;;;;;2.47;0.90;;;;;;;;;;5029878;28;20070;-37
2022/07/13 06:05:59;;;;;;;6.30;1.00;;;;;;;;;;5025179;28;20124;-40
2022/07/13 06:08:24;;;;;;;3.07;0.90;;;;;;;;;;5027250;28;20018;-38
2022/07/13 06:10:52;;;;;;;2.17;0.90;;;;;;;;;;5028801;28;20365;-37
2022/07/13 06:13:18;;;;;;;2.63;0.73;;;;;;;;;;5027015;28;20029;-36
2022/07/13 06:15:43;;;;;;;1.83;0.57;;;;;;;;;;5029256;28;20031;-42
2022/07/13 06:18:08;;;;;;;2.17;1.07;;;;;;;;;;5030095;28;20021;-38
2022/07/13 06:20:33;;;;;;;57.08;20.58;;;;;;;;;;5035625;28;20317;-41
2022/07/13 06:23:11;;;;;;;26.08;6.15;;;;;;;;;;5046628;28;20116;-38
2022/07/13 06:25:37;;;;;;;27.40;8.50;;;;;;;;;;5029591;28;20067;-37
2022/07/13 06:28:03;;;;;;;23.05;4.53;;;;;;;;;;5030999;28;20021;-38
2022/07/13 06:30:28;;;;;;;9.35;1.65;;;;;;;;;;5036274;28;20544;-38
2022/07/13 06:32:53;;;;;;;65.60;26.45;;;;;;;;;;5034143;28;20072;-38
2022/07/13 06:35:19;;;;;;;1.60;0.82;;;;;;;;;;5033651;28;20025;-38
2022/07/13 06:37:44;;;;;;;11.13;1.67;;;;;;;;;;5033660;28;20559;-37
2022/07/13 06:40:10;;;;;;;224.98;117.95;;;;;;;;;;5033164;28;20279;-39
2022/07/13 06:42:35;;;;;;;16.35;6.20;;;;;;;;;;5032220;28;20025;-38
2022/07/13 06:45:01;;;;;;;187.00;83.53;;;;;;;;;;5034534;28;20045;-39
2022/07/13 06:47:26;;;;;;;4.78;0.98;;;;;;;;;;5029237;28;20029;-38
2022/07/13 06:49:51;;;;;;;2.08;0.80;;;;;;;;;;5027897;28;20025;-39
2022/07/13 06:52:16;;;;;;;1.33;0.70;;;;;;;;;;5031186;28;20079;-38
2022/07/13 06:54:42;;;;;;;3.28;1.10;;;;;;;;;;5033439;28;20022;-38
2022/07/13 06:57:07;;;;;;;0.93;0.60;;;;;;;;;;5033069;28;20092;-43
2022/07/13 06:59:32;;;;;;;1.23;0.77;;;;;;;;;;5032350;28;20056;-38
2022/07/13 07:01:58;;;;;;;7.00;1.17;;;;;;;;;;5032724;28;20061;-39
2022/07/13 07:04:23;;;;;;;0.82;0.68;;;;;;;;;;5032711;28;20389;-38
2022/07/13 07:06:48;;;;;;;7.60;0.85;;;;;;;;;;5033277;28;20028;-38
2022/07/13 07:09:14;;;;;;;4.97;1.00;;;;;;;;;;5032010;28;20421;-38
2022/07/13 07:11:39;;;;;;;4.10;0.70;;;;;;;;;;5032758;28;20021;-38
2022/07/13 07:14:05;;;;;;;3.22;0.70;;;;;;;;;;5032934;28;20026;-38
2022/07/13 07:16:30;;;;;;;3.50;1.02;;;;;;;;;;5032825;28;20043;-38
2022/07/13 07:18:55;;;;;;;136.68;8.13;;;;;;;;;;5028270;28;20666;-38
2022/07/13 07:21:21;;;;;;;1.35;1.00;;;;;;;;;;5031008;28;20033;-39
2022/07/13 07:23:47;;;;;;;4.18;1.00;;;;;;;;;;5030073;28;20073;-37
2022/07/13 07:26:12;;;;;;;5.03;0.63;;;;;;;;;;5031247;28;20080;-37
2022/07/13 07:28:38;;;;;;;6.55;1.00;;;;;;;;;;5030060;28;20037;-40
2022/07/13 07:31:03;;;;;;;1.25;0.82;;;;;;;;;;5030402;28;20013;-37
2022/07/13 07:33:29;;;;;;;4.00;0.70;;;;;;;;;;5030065;28;20531;-38
2022/07/13 07:35:54;;;;;;;1.67;1.00;;;;;;;;;;5032222;28;20048;-37
2022/07/13 07:38:19;;;;;;;5.55;0.82;;;;;;;;;;5031832;28;20045;-41
2022/07/13 07:40:45;;;;;;;8.73;0.70;;;;;;;;;;5030843;28;20388;-38
2022/07/13 07:43:10;;;;;;;3.20;0.70;;;;;;;;;;5038539;28;20017;-39
2022/07/13 07:45:35;;;;;;;3.43;0.63;;;;;;;;;;5043623;28;20520;-40
2022/07/13 07:48:01;;;;;;;16.50;1.47;;;;;;;;;;5026730;28;20350;-38
2022/07/13 07:50:27;;;;;;;4.95;0.90;;;;;;;;;;5032334;28;20468;-38
2022/07/13 07:52:52;;;;;;;3.23;0.60;;;;;;;;;;5036237;28;20056;-37
2022/07/13 07:55:17;;;;;;;3.33;0.80;;;;;;;;;;5028366;28;20283;-39
2022/07/13 07:57:46;;;;;;;4.10;0.70;;;;;;;;;;5032589;28;20388;-39
2022/07/13 08:00:12;;;;;;;1.55;0.77;;;;;;;;;;5027053;28;20022;-37
2022/07/13 08:02:38;;;;;;;1.92;0.60;;;;;;;;;;5031137;28;20026;-37
2022/07/13 08:05:05;;;;;;;9.68;0.93;;;;;;;;;;5031143;28;20418;-37
2022/07/13 08:07:30;;;;;;;4.10;0.77;;;;;;;;;;5030719;28;20515;-38
2022/07/13 08:09:56;;;;;;;3.15;0.70;;;;;;;;;;5028443;28;20045;-39
2022/07/13 08:12:21;;;;;;;1.52;0.82;;;;;;;;;;5039236;28;20021;-42
2022/07/13 08:14:47;;;;;;;1.60;0.70;;;;;;;;;;5038894;28;20068;-38
2022/07/13 08:17:12;;;;;;;0.93;0.50;;;;;;;;;;5031243;28;20306;-40
2022/07/13 08:19:38;;;;;;;4.20;0.80;;;;;;;;;;5030208;28;20021;-38
2022/07/13 08:22:03;;;;;;;5.07;0.75;;;;;;;;;;5030524;28;20022;-39
2022/07/13 08:24:28;;;;;;;1.02;0.50;;;;;;;;;;5029961;28;20041;-39
2022/07/13 08:26:54;;;;;;;5.37;0.90;;;;;;;;;;5029058;28;20035;-39
2022/07/13 08:29:19;;;;;;;5.30;1.30;;;;;;;;;;5025572;28;20032;-38
2022/07/13 08:31:44;;;;;;;5.30;0.65;;;;;;;;;;5030816;28;20071;-43
2022/07/13 08:39:38;;;;;;;2.95;0.60;;;;;;;;;;5010584;28;20053;-39
2022/07/13 08:42:04;;;;;;;2.35;0.75;;;;;;;;;;5009569;28;20018;-39
2022/07/13 08:44:30;;;;;;;4.45;0.60;;;;;;;;;;5026934;28;20389;-37
2022/07/13 08:46:56;;;;;;;3.88;0.90;;;;;;;;;;5028420;28;20022;-40
2022/07/13 08:49:22;;;;;;;1.98;0.63;;;;;;;;;;5026846;28;20030;-40
2022/07/13 08:51:48;;;;;;;5.88;0.75;;;;;;;;;;5030675;28;20025;-40
2022/07/13 08:54:13;;;;;;;2.53;0.65;;;;;;;;;;5033147;28;20687;-38
2022/07/13 08:56:42;;;;;;;3.95;0.85;;;;;;;;;;5028628;28;20029;-37
2022/07/13 08:59:07;;;;;;;3.85;1.00;;;;;;;;;;5033958;28;20479;-38
2022/07/13 09:01:33;;;;;;;1.77;0.65;;;;;;;;;;5026737;28;20056;-44
2022/07/13 09:03:58;;;;;;;2.75;0.80;;;;;;;;;;5025661;28;20022;-38
2022/07/13 09:06:38;;;;;;;0.50;0.50;;;;;;;;;;5025303;28;20029;-38
2022/07/13 09:09:04;;;;;;;6.85;0.85;;;;;;;;;;5028804;28;20036;-39
2022/07/13 09:11:29;;;;;;;3.83;0.70;;;;;;;;;;5028229;28;20022;-39
2022/07/13 09:13:56;;;;;;;1.67;0.70;;;;;;;;;;5030130;28;20025;-37
2022/07/13 09:16:22;;;;;;;5.22;0.68;;;;;;;;;;5028598;28;20499;-39
2022/07/13 09:18:49;;;;;;;9.48;1.10;;;;;;;;;;5025776;28;20029;-40
2022/07/13 09:21:14;;;;;;;6.35;0.90;;;;;;;;;;5029128;28;20020;-38
2022/07/13 09:23:40;;;;;;;4.05;0.50;;;;;;;;;;5027681;28;20025;-39
2022/07/13 09:26:06;;;;;;;7.43;0.98;;;;;;;;;;5028933;28;20040;-38
2022/07/13 09:28:44;;;;;;;7.80;0.95;;;;;;;;;;5027211;28;20025;-37
2022/07/13 09:31:10;;;;;;;3.80;0.60;;;;;;;;;;5028215;28;20022;-37
2022/07/13 09:33:36;;;;;;;0.82;0.63;;;;;;;;;;5031134;28;20048;-39
2022/07/13 09:36:09;;;;;;;8.57;0.68;;;;;;;;;;5028860;28;20045;-39
2022/07/13 09:38:36;;;;;;;3.47;0.80;;;;;;;;;;5027378;28;20120;-41
2022/07/13 09:41:13;;;;;;;5.47;0.85;;;;;;;;;;5029625;28;20461;-39
2022/07/13 09:46:35;;;;;;;2.70;0.68;;;;;;;;;;5026552;28;20076;-37
2022/07/13 09:49:00;;;;;;;8.30;0.93;;;;;;;;;;5029607;28;20057;-39
2022/07/13 09:51:26;;;;;;;5.10;0.68;;;;;;;;;;5030584;28;20038;-36
2022/07/13 09:53:53;;;;;;;4.32;0.70;;;;;;;;;;5029210;28;20025;-37
2022/07/13 09:56:21;;;;;;;6.88;1.67;;;;;;;;;;5023605;28;20147;-39
2022/07/13 09:58:47;;;;;;;4.13;0.87;;;;;;;;;;5030468;28;20033;-40
2022/07/13 10:01:13;;;;;;;4.00;0.60;;;;;;;;;;5029423;28;20052;-39
2022/07/13 10:03:40;;;;;;;1.33;0.50;;;;;;;;;;5028746;28;20024;-40
2022/07/13 10:06:05;;;;;;;1.77;0.90;;;;;;;;;;5029085;28;20048;-38
2022/07/13 10:08:31;;;;;;;3.13;0.80;;;;;;;;;;5029907;28;20029;-39
2022/07/13 10:10:57;;;;;;;9.20;0.80;;;;;;;;;;5029142;28;20089;-39
2022/07/13 10:13:23;;;;;;;6.50;0.98;;;;;;;;;;5029814;28;20112;-38
2022/07/13 10:15:49;;;;;;;6.32;1.05;;;;;;;;;;5029595;28;20048;-38
2022/07/13 10:18:28;;;;;;;1.97;0.90;;;;;;;;;;5029549;28;20104;-40
2022/07/13 10:21:12;;;;;;;3.42;0.60;;;;;;;;;;5023200;28;20361;-40
2022/07/13 10:23:38;;;;;;;1.00;0.60;;;;;;;;;;5014860;28;20063;-38
2022/07/13 10:26:16;;;;;;;6.93;1.00;;;;;;;;;;5013615;28;20038;-39
2022/07/13 10:28:42;;;;;;;3.50;1.17;;;;;;;;;;5013937;28;20032;-43
2022/07/13 10:31:26;;;;;;;2.83;0.60;;;;;;;;;;5015644;28;20574;-41
2022/07/13 10:33:52;;;;;;;1.60;1.00;;;;;;;;;;5029938;28;20025;-39
2022/07/13 10:36:37;;;;;;;7.82;0.95;;;;;;;;;;5033330;28;20104;-38
2022/07/13 10:39:12;;;;;;;6.60;0.90;;;;;;;;;;5028817;28;20042;-38
2022/07/13 10:41:58;;;;;;;4.75;0.80;;;;;;;;;;5026238;28;20056;-39
2022/07/13 10:44:39;;;;;;;7.82;0.80;;;;;;;;;;5026003;28;20033;-39
2022/07/13 10:47:06;;;;;;;3.88;0.80;;;;;;;;;;5025154;28;20071;-39
2022/07/13 10:49:53;;;;;;;4.32;0.73;;;;;;;;;;5031093;28;20036;-40
2022/07/13 10:52:26;;;;;;;5.82;0.90;;;;;;;;;;5025286;28;20044;-38
2022/07/13 10:55:05;;;;;;;1.70;0.77;;;;;;;;;;5021946;28;20014;-38
2022/07/13 10:57:31;;;;;;;7.88;1.10;;;;;;;;;;5021677;28;20472;-38
2022/07/13 11:00:19;;;;;;;5.63;1.25;;;;;;;;;;5021872;28;20064;-36
2022/07/13 11:02:47;;;;;;;0.70;0.60;;;;;;;;;;5032041;28;20033;-39
2022/07/13 11:05:13;;;;;;;4.30;1.00;;;;;;;;;;5032178;28;20106;-42
2022/07/13 11:07:42;;;;;;;0.88;0.40;;;;;;;;;;5031337;28;20022;-37
2022/07/13 11:10:14;;;;;;;2.72;0.63;;;;;;;;;;5030243;28;20025;-38
2022/07/13 11:12:53;;;;;;;3.97;0.63;;;;;;;;;;5027248;28;20034;-39
2022/07/13 11:15:19;;;;;;;1.00;0.77;;;;;;;;;;5024879;28;20029;-38
2022/07/13 11:17:52;;;;;;;2.45;0.70;;;;;;;;;;5031452;28;20067;-40
2022/07/13 11:20:17;;;;;;;1.63;0.65;;;;;;;;;;5031896;28;20029;-38
2022/07/13 11:25:46;;;;;;;11.27;1.25;;;;;;;;;;5018252;28;20041;-39
2022/07/13 11:28:30;;;;;;;5.25;0.93;;;;;;;;;;5029209;28;20552;-37
2022/07/13 11:30:55;;;;;;;4.80;0.93;;;;;;;;;;5026755;28;20605;-39
2022/07/13 11:33:21;;;;;;;2.45;0.50;;;;;;;;;;5026553;28;20063;-40
2022/07/13 11:35:47;;;;;;;3.85;0.60;;;;;;;;;;5033943;28;20041;-41
2022/07/13 11:38:14;;;;;;;2.30;0.60;;;;;;;;;;5029778;28;20105;-41
2022/07/13 11:40:40;;;;;;;12.68;1.55;;;;;;;;;;5010378;28;20034;-40
2022/07/13 11:43:07;;;;;;;4.90;1.55;;;;;;;;;;5012186;28;20088;-42
2022/07/13 11:45:33;;;;;;;3.40;0.70;;;;;;;;;;5012659;28;20036;-40
2022/07/13 11:47:59;;;;;;;3.80;0.75;;;;;;;;;;5005117;28;20408;-39
2022/07/13 11:51:03;;;;;;;14.70;1.63;;;;;;;;;;5011819;28;20531;-40
2022/07/13 11:53:30;;;;;;;1.67;0.55;;;;;;;;;;4989022;28;20038;-43
2022/07/13 11:55:57;;;;;;;1.17;0.32;;;;;;;;;;4988540;28;20061;-39
2022/07/13 11:58:23;;;;;;;2.90;0.60;;;;;;;;;;4996472;28;20030;-41
2022/07/13 12:00:49;;;;;;;5.28;0.73;;;;;;;;;;5011666;28;20184;-39
2022/07/13 12:03:14;;;;;;;6.38;1.02;;;;;;;;;;5013884;28;20100;-43
2022/07/13 12:05:42;;;;;;;1.40;0.60;;;;;;;;;;5013647;28;20037;-39
2022/07/13 12:08:08;;;;;;;10.75;0.73;;;;;;;;;;5028838;28;20029;-43
2022/07/13 12:10:36;;;;;;;3.92;0.70;;;;;;;;;;5016008;28;20532;-41
2022/07/13 12:13:01;;;;;;;6.82;0.90;;;;;;;;;;5012489;28;20026;-39
2022/07/13 12:15:27;;;;;;;1.83;0.63;;;;;;;;;;5015345;28;20108;-45
2022/07/13 12:17:53;;;;;;;0.85;0.50;;;;;;;;;;5008263;28;20021;-44
2022/07/13 12:20:22;;;;;;;3.85;0.82;;;;;;;;;;5010331;28;20014;-42
2022/07/13 12:22:51;;;;;;;4.10;0.90;;;;;;;;;;5007676;28;20033;-41
2022/07/13 12:25:27;;;;;;;3.70;1.02;;;;;;;;;;5006580;28;20076;-40
2022/07/13 12:27:53;;;;;;;2.17;0.88;;;;;;;;;;5010195;28;20152;-40
2022/07/13 12:30:19;;;;;;;2.60;0.70;;;;;;;;;;5007913;28;20056;-39
2022/07/13 12:32:58;;;;;;;0.60;0.60;;;;;;;;;;5027686;28;20065;-42
2022/07/13 12:35:27;;;;;;;2.03;0.90;;;;;;;;;;5001126;28;20034;-40
2022/07/13 12:37:53;;;;;;;3.55;0.98;;;;;;;;;;5010482;28;20385;-39
2022/07/13 12:40:52;;;;;;;3.50;0.70;;;;;;;;;;5025120;28;20041;-38
2022/07/13 12:43:25;;;;;;;10.05;1.20;;;;;;;;;;5024212;28;20048;-38
2022/07/13 12:45:54;;;;;;;3.97;0.80;;;;;;;;;;5029181;28;20040;-39
2022/07/13 12:48:24;;;;;;;12.75;0.90;;;;;;;;;;5028126;28;20784;-41
2022/07/13 12:51:00;;;;;;;4.47;0.70;;;;;;;;;;5021107;28;20021;-38
2022/07/13 12:53:26;;;;;;;7.53;1.08;;;;;;;;;;5028127;28;20033;-37
2022/07/13 12:55:52;;;;;;;4.72;0.90;;;;;;;;;;5014994;28;20057;-38
2022/07/13 12:58:19;;;;;;;7.13;0.93;;;;;;;;;;5027706;28;20109;-38
2022/07/13 13:00:44;;;;;;;5.00;1.25;;;;;;;;;;5027703;28;20032;-39
2022/07/13 13:03:10;;;;;;;1.80;0.63;;;;;;;;;;5028688;28;20021;-38
2022/07/13 13:05:38;;;;;;;1.30;0.70;;;;;;;;;;5029704;28;20071;-38
2022/07/13 13:08:03;;;;;;;5.82;0.80;;;;;;;;;;5030687;28;20781;-38
2022/07/13 13:10:32;;;;;;;7.78;1.02;;;;;;;;;;5030168;28;20068;-39
2022/07/13 13:12:57;;;;;;;6.10;0.68;;;;;;;;;;5030572;28;20029;-38
2022/07/13 13:15:23;;;;;;;4.70;0.88;;;;;;;;;;5030466;28;20040;-40
2022/07/13 13:17:49;;;;;;;3.08;0.85;;;;;;;;;;5029583;28;20025;-39
2022/07/13 13:20:14;;;;;;;1.83;0.80;;;;;;;;;;5031608;28;20385;-38
2022/07/13 13:22:40;;;;;;;3.50;0.75;;;;;;;;;;5038559;28;20033;-38
2022/07/13 13:25:05;;;;;;;3.37;0.80;;;;;;;;;;5029010;28;20048;-39
2022/07/13 13:27:30;;;;;;;1.92;0.68;;;;;;;;;;5024808;28;20312;-39
2022/07/13 13:32:56;;;;;;;1.42;0.60;;;;;;;;;;5014492;28;20094;-41
2022/07/13 13:35:21;;;;;;;3.10;0.60;;;;;;;;;;5028190;28;20465;-39
2022/07/13 13:37:47;;;;;;;2.08;0.90;;;;;;;;;;5030334;28;20772;-39
2022/07/13 13:40:14;;;;;;;2.30;0.75;;;;;;;;;;5025005;28;20527;-38
2022/07/13 13:42:39;;;;;;;2.13;0.50;;;;;;;;;;5026701;28;20026;-38
2022/07/13 13:45:05;;;;;;;2.60;0.80;;;;;;;;;;5028655;28;20048;-39
2022/07/13 13:47:30;;;;;;;11.18;1.15;;;;;;;;;;5025474;28;20030;-39
2022/07/13 13:49:55;;;;;;;4.03;0.68;;;;;;;;;;5024005;28;20037;-40
2022/07/13 13:52:21;;;;;;;3.47;0.90;;;;;;;;;;5021613;28;20026;-39
2022/07/13 13:54:46;;;;;;;5.38;0.63;;;;;;;;;;5026288;28;20423;-45
2022/07/13 13:57:11;;;;;;;1.70;0.60;;;;;;;;;;5023542;28;20029;-42
2022/07/13 13:59:36;;;;;;;2.47;0.60;;;;;;;;;;5019206;28;20048;-39
2022/07/13 14:02:02;;;;;;;7.28;0.75;;;;;;;;;;5027647;28;20040;-41
2022/07/13 14:04:27;;;;;;;8.15;0.95;;;;;;;;;;5032581;28;20035;-38
2022/07/13 14:06:53;;;;;;;3.90;0.77;;;;;;;;;;5032872;28;20091;-38
2022/07/13 14:09:18;;;;;;;1.73;0.50;;;;;;;;;;5033909;28;20044;-38
2022/07/13 14:11:43;;;;;;;3.13;0.90;;;;;;;;;;5033994;28;20088;-39
2022/07/13 14:14:09;;;;;;;3.72;1.13;;;;;;;;;;5034129;28;20021;-40
2022/07/13 14:16:34;;;;;;;7.25;0.70;;;;;;;;;;5033889;28;20032;-40
2022/07/13 14:18:59;;;;;;;4.82;0.70;;;;;;;;;;5032308;28;20040;-39
2022/07/13 14:21:25;;;;;;;6.05;0.88;;;;;;;;;;5032023;28;20021;-39
2022/07/13 14:23:50;;;;;;;1.30;0.98;;;;;;;;;;5026881;28;20319;-39
2022/07/13 14:26:16;;;;;;;8.38;0.70;;;;;;;;;;5033036;28;20076;-39
2022/07/13 14:28:41;;;;;;;3.03;0.82;;;;;;;;;;5030749;28;20112;-41
2022/07/13 14:31:07;;;;;;;3.83;0.50;;;;;;;;;;5029281;28;20029;-45
2022/07/13 14:33:32;;;;;;;2.95;0.68;;;;;;;;;;5027059;28;20420;-40
2022/07/13 14:36:00;;;;;;;5.20;0.70;;;;;;;;;;5030872;28;21817;-40
2022/07/13 14:38:25;;;;;;;3.40;0.80;;;;;;;;;;5027611;28;20069;-40
2022/07/13 14:40:51;;;;;;;3.83;1.33;;;;;;;;;;5038917;28;20079;-42
2022/07/13 14:43:16;;;;;;;6.68;0.68;;;;;;;;;;5035835;28;20021;-39
2022/07/13 14:45:42;;;;;;;5.40;0.55;;;;;;;;;;5032512;28;20382;-39
2022/07/13 14:48:08;;;;;;;35.65;3.38;;;;;;;;;;5032286;28;20044;-43
2022/07/13 14:50:33;;;;;;;3.55;0.80;;;;;;;;;;5032383;28;20049;-40
2022/07/13 14:53:00;;;;;;;2.97;0.73;;;;;;;;;;5032417;28;20060;-40